Time,TemperatureF,DewpointF,PressureIn,WindDirection,WindDirectionDegrees,WindSpeedMPH,WindSpeedGustMPH,Humidity,HourlyPrecipIn,Conditions,Clouds,dailyrainin,SoftwareType,DateUTC
2013-05-30 04:02:00,64.0,63.0,-100.00,WNW,290,5.0,9.0,96,-99.99,,,-99.99,,2013-05-30 08:02:00,
2013-05-30 05:22:00,64.0,63.0,-100.00,West,275,3.0,8.0,95,-99.99,,,-99.99,,2013-05-30 09:22:00,
2013-05-30 05:33:00,64.0,63.0,-100.00,SW,220,2.0,7.0,95,-99.99,,,-99.99,,2013-05-30 09:33:00,
2013-05-30 05:43:00,63.0,62.0,-100.00,SW,235,2.0,6.0,96,-99.99,,,-99.99,,2013-05-30 09:43:00,
2013-05-30 05:53:00,64.0,63.0,-100.00,SW,235,1.0,6.0,96,-99.99,,,-99.99,,2013-05-30 09:53:00,
2013-05-30 06:13:00,64.0,63.0,-100.00,SW,220,2.0,6.0,97,-99.99,,,-99.99,,2013-05-30 10:13:00,
2013-05-30 07:03:00,65.0,64.0,-100.00,WNW,285,3.0,7.0,94,-99.99,,,-99.99,,2013-05-30 11:03:00,
2013-05-30 07:12:00,66.0,64.0,-100.00,WSW,255,5.0,9.0,93,-99.99,,,-99.99,,2013-05-30 11:12:00,
2013-05-30 07:22:00,66.0,64.0,-100.00,WNW,285,6.0,10.0,93,-99.99,,,-99.99,,2013-05-30 11:22:00,
2013-05-30 07:32:00,67.0,64.0,-100.00,WNW,300,6.0,9.0,92,-99.99,,,-99.99,,2013-05-30 11:32:00,
2013-05-30 07:42:00,67.0,64.0,-100.00,WNW,300,6.0,9.0,92,-99.99,,,-99.99,,2013-05-30 11:42:00,
2013-05-30 08:11:00,68.0,65.0,-100.00,West,260,3.0,7.0,90,-99.99,,,-99.99,,2013-05-30 12:11:00,
2013-05-30 08:42:00,70.0,65.0,-100.00,West,270,3.0,9.0,86,-99.99,,,-99.99,,2013-05-30 12:42:00,
2013-05-30 08:52:00,70.0,66.0,-100.00,West,275,3.0,7.0,86,-99.99,,,-99.99,,2013-05-30 12:52:00,
2013-05-30 09:01:00,71.0,66.0,-100.00,West,260,3.0,8.0,85,-99.99,,,-99.99,,2013-05-30 13:01:00,
2013-05-30 09:11:00,72.0,67.0,-100.00,WNW,285,3.0,8.0,85,-99.99,,,-99.99,,2013-05-30 13:11:00,
2013-05-30 09:22:00,73.0,67.0,-100.00,West,275,3.0,7.0,82,-99.99,,,-99.99,,2013-05-30 13:22:00,
2013-05-30 09:32:00,73.0,67.0,-100.00,WNW,295,6.0,10.0,81,-99.99,,,-99.99,,2013-05-30 13:32:00,
2013-05-30 09:42:00,74.0,67.0,-100.00,WNW,285,6.0,10.0,79,-99.99,,,-99.99,,2013-05-30 13:42:00,
2013-05-30 09:52:00,76.0,68.0,-100.00,West,275,7.0,12.0,77,-99.99,,,-99.99,,2013-05-30 13:52:00,
2013-05-30 10:02:00,76.0,68.0,-100.00,West,275,7.0,12.0,77,-99.99,,,-99.99,,2013-05-30 14:02:00,
2013-05-30 10:12:00,76.0,68.0,-100.00,WNW,295,7.0,12.0,75,-99.99,,,-99.99,,2013-05-30 14:12:00,
2013-05-30 10:22:00,77.0,68.0,-100.00,WNW,290,8.0,15.0,72,-99.99,,,-99.99,,2013-05-30 14:22:00,
2013-05-30 10:32:00,78.0,66.0,-100.00,WNW,285,10.0,16.0,68,-99.99,,,-99.99,,2013-05-30 14:32:00,
2013-05-30 10:42:00,78.0,66.0,-100.00,WNW,285,10.0,16.0,68,-99.99,,,-99.99,,2013-05-30 14:42:00,
2013-05-30 11:33:00,81.0,66.0,-100.00,WNW,290,8.0,15.0,61,-99.99,,,-99.99,,2013-05-30 15:33:00,
2013-05-30 11:42:00,81.0,66.0,-100.00,WNW,290,8.0,15.0,61,-99.99,,,-99.99,,2013-05-30 15:42:00,
2013-05-30 11:52:00,81.0,67.0,-100.00,WNW,285,8.0,17.0,62,-99.99,,,-99.99,,2013-05-30 15:52:00,
2013-05-30 12:03:00,81.0,67.0,-100.00,WNW,285,8.0,17.0,62,-99.99,,,-99.99,,2013-05-30 16:03:00,
2013-05-30 12:12:00,81.0,66.0,-100.00,WNW,300,10.0,14.0,59,-99.99,,,-99.99,,2013-05-30 16:12:00,
2013-05-30 12:23:00,81.0,66.0,-100.00,WNW,300,10.0,14.0,59,-99.99,,,-99.99,,2013-05-30 16:23:00,
2013-05-30 12:33:00,82.0,66.0,-100.00,NW,305,8.0,15.0,58,-99.99,,,-99.99,,2013-05-30 16:33:00,
2013-05-30 12:42:00,82.0,66.0,-100.00,NW,305,8.0,15.0,58,-99.99,,,-99.99,,2013-05-30 16:42:00,
2013-05-30 12:52:00,83.0,67.0,-100.00,NW,310,8.0,18.0,59,-99.99,,,-99.99,,2013-05-30 16:52:00,
2013-05-30 13:03:00,83.0,67.0,-100.00,NW,310,8.0,18.0,59,-99.99,,,-99.99,,2013-05-30 17:03:00,
2013-05-30 13:12:00,82.0,66.0,-100.00,WNW,300,9.0,18.0,58,-99.99,,,-99.99,,2013-05-30 17:12:00,
2013-05-30 13:22:00,83.0,66.0,-100.00,WNW,295,13.0,17.0,56,-99.99,,,-99.99,,2013-05-30 17:22:00,
2013-05-30 13:32:00,84.0,66.0,-100.00,WNW,290,10.0,17.0,56,-99.99,,,-99.99,,2013-05-30 17:32:00,
2013-05-30 13:42:00,84.0,66.0,-100.00,WNW,290,10.0,17.0,56,-99.99,,,-99.99,,2013-05-30 17:42:00,
2013-05-30 13:52:00,83.0,66.0,-100.00,NW,320,10.0,17.0,58,-99.99,,,-99.99,,2013-05-30 17:52:00,
2013-05-30 14:02:00,83.0,67.0,-100.00,WNW,300,7.0,22.0,59,-99.99,,,-99.99,,2013-05-30 18:02:00,
2013-05-30 14:11:00,84.0,68.0,-100.00,WNW,290,6.0,16.0,59,-99.99,,,-99.99,,2013-05-30 18:11:00,
2013-05-30 14:22:00,84.0,68.0,-100.00,WNW,290,6.0,16.0,59,-99.99,,,-99.99,,2013-05-30 18:22:00,
2013-05-30 14:32:00,84.0,68.0,-100.00,NW,315,7.0,20.0,58,-99.99,,,-99.99,,2013-05-30 18:32:00,
2013-05-30 14:43:00,84.0,68.0,-100.00,NW,315,7.0,20.0,58,-99.99,,,-99.99,,2013-05-30 18:43:00,
2013-05-30 14:52:00,85.0,67.0,-100.00,WNW,295,10.0,16.0,56,-99.99,,,-99.99,,2013-05-30 18:52:00,
2013-05-30 15:02:00,83.0,66.0,-100.00,WNW,285,10.0,20.0,56,-99.99,,,-99.99,,2013-05-30 19:02:00,
2013-05-30 15:12:00,84.0,66.0,-100.00,WNW,300,10.0,18.0,55,-99.99,,,-99.99,,2013-05-30 19:12:00,
2013-05-30 15:23:00,84.0,66.0,-100.00,WNW,300,10.0,18.0,55,-99.99,,,-99.99,,2013-05-30 19:23:00,
2013-05-30 15:32:00,85.0,67.0,-100.00,NW,305,8.0,15.0,54,-99.99,,,-99.99,,2013-05-30 19:32:00,
2013-05-30 15:42:00,85.0,67.0,-100.00,NW,305,8.0,15.0,54,-99.99,,,-99.99,,2013-05-30 19:42:00,
2013-05-30 15:52:00,86.0,66.0,-100.00,NW,310,12.0,20.0,52,-99.99,,,-99.99,,2013-05-30 19:52:00,
2013-05-30 16:02:00,86.0,66.0,-100.00,NW,310,12.0,20.0,52,-99.99,,,-99.99,,2013-05-30 20:02:00,
2013-05-30 16:11:00,85.0,66.0,-100.00,WNW,300,13.0,18.0,53,-99.99,,,-99.99,,2013-05-30 20:11:00,
2013-05-30 16:23:00,86.0,65.0,-100.00,NW,305,13.0,20.0,51,-99.99,,,-99.99,,2013-05-30 20:23:00,
2013-05-30 16:33:00,86.0,66.0,-100.00,NW,320,12.0,16.0,51,-99.99,,,-99.99,,2013-05-30 20:33:00,
2013-05-30 16:42:00,86.0,66.0,-100.00,NW,320,12.0,16.0,51,-99.99,,,-99.99,,2013-05-30 20:42:00,
2013-05-30 16:52:00,85.0,67.0,-100.00,WNW,295,10.0,17.0,54,-99.99,,,-99.99,,2013-05-30 20:52:00,
2013-05-30 17:00:00,86.0,65.0,-100.00,WNW,295,10.0,15.0,50,-99.99,,,-99.99,,2013-05-30 21:00:00,
2013-05-30 17:01:00,85.0,67.0,-100.00,WNW,295,8.0,14.0,54,-99.99,,,-99.99,,2013-05-30 21:01:00,
2013-05-30 17:11:00,85.0,67.0,-100.00,WNW,290,10.0,16.0,54,-99.99,,,-99.99,,2013-05-30 21:11:00,
2013-05-30 17:22:00,85.0,67.0,-100.00,WNW,290,10.0,16.0,54,-99.99,,,-99.99,,2013-05-30 21:22:00,
2013-05-30 17:33:00,86.0,65.0,-100.00,WNW,295,10.0,15.0,50,-99.99,,,-99.99,,2013-05-30 21:33:00,
2013-05-30 17:43:00,86.0,65.0,-100.00,WNW,295,10.0,15.0,50,-99.99,,,-99.99,,2013-05-30 21:43:00,
2013-05-30 17:53:00,86.0,65.0,-100.00,WNW,295,10.0,15.0,50,-99.99,,,-99.99,,2013-05-30 21:53:00,
2013-05-30 18:12:00,86.0,66.0,-100.00,NW,305,9.0,17.0,52,-99.99,,,-99.99,,2013-05-30 22:12:00,
2013-05-30 18:23:00,86.0,66.0,-100.00,NW,320,7.0,15.0,51,-99.99,,,-99.99,,2013-05-30 22:23:00,
2013-05-30 18:33:00,86.0,66.0,-100.00,NW,315,8.0,15.0,51,-99.99,,,-99.99,,2013-05-30 22:33:00,
2013-05-30 18:42:00,86.0,66.0,-100.00,NW,315,8.0,15.0,51,-99.99,,,-99.99,,2013-05-30 22:42:00,
2013-05-30 18:52:00,85.0,66.0,-100.00,NW,310,8.0,15.0,52,-99.99,,,-99.99,,2013-05-30 22:52:00,
2013-05-30 19:02:00,85.0,66.0,-100.00,NW,310,8.0,15.0,52,-99.99,,,-99.99,,2013-05-30 23:02:00,
2013-05-30 19:12:00,85.0,66.0,-100.00,WNW,300,9.0,16.0,52,-99.99,,,-99.99,,2013-05-30 23:12:00,
2013-05-30 19:32:00,85.0,66.0,-100.00,WNW,295,8.0,15.0,53,-99.99,,,-99.99,,2013-05-30 23:32:00,
2013-05-30 19:42:00,85.0,66.0,-100.00,WNW,295,8.0,15.0,53,-99.99,,,-99.99,,2013-05-30 23:42:00,
2013-05-30 19:52:00,84.0,66.0,-100.00,NW,305,7.0,10.0,54,-99.99,,,-99.99,,2013-05-30 23:52:00,
2013-05-30 20:01:00,84.0,66.0,-100.00,NW,305,7.0,10.0,54,-99.99,,,-99.99,,2013-05-31 00:01:00,
2013-05-30 20:11:00,84.0,66.0,-100.00,WNW,295,5.0,10.0,55,-99.99,,,-99.99,,2013-05-31 00:11:00,
2013-05-30 20:32:00,82.0,66.0,-100.00,WNW,285,5.0,7.0,58,-99.99,,,-99.99,,2013-05-31 00:32:00,
2013-05-30 20:42:00,82.0,66.0,-100.00,WNW,285,5.0,7.0,58,-99.99,,,-99.99,,2013-05-31 00:42:00,
2013-05-30 20:52:00,81.0,66.0,-100.00,WNW,290,5.0,6.0,60,-99.99,,,-99.99,,2013-05-31 00:52:00,
2013-05-30 21:01:00,81.0,66.0,-100.00,WNW,290,5.0,6.0,60,-99.99,,,-99.99,,2013-05-31 01:01:00,
2013-05-30 21:12:00,81.0,65.0,-100.00,WNW,285,3.0,5.0,60,-99.99,,,-99.99,,2013-05-31 01:12:00,
2013-05-30 21:21:00,80.0,66.0,-100.00,WNW,285,3.0,5.0,61,-99.99,,,-99.99,,2013-05-31 01:21:00,
2013-05-30 21:32:00,79.0,66.0,-100.00,WNW,285,2.0,6.0,63,-99.99,,,-99.99,,2013-05-31 01:32:00,
2013-05-30 21:42:00,79.0,66.0,-100.00,WNW,285,2.0,6.0,63,-99.99,,,-99.99,,2013-05-31 01:42:00,
2013-05-30 21:52:00,78.0,65.0,-100.00,WNW,285,2.0,6.0,65,-99.99,,,-99.99,,2013-05-31 01:52:00,
2013-05-30 22:02:00,78.0,65.0,-100.00,WNW,285,2.0,6.0,65,-99.99,,,-99.99,,2013-05-31 02:02:00,
2013-05-30 22:11:00,78.0,66.0,-100.00,WNW,290,3.0,6.0,67,-99.99,,,-99.99,,2013-05-31 02:11:00,
2013-05-30 22:22:00,78.0,66.0,-100.00,WNW,290,3.0,6.0,67,-99.99,,,-99.99,,2013-05-31 02:22:00,
2013-05-30 22:32:00,77.0,66.0,-100.00,WNW,285,2.0,5.0,68,-99.99,,,-99.99,,2013-05-31 02:32:00,
2013-05-30 22:42:00,77.0,66.0,-100.00,WNW,285,2.0,5.0,68,-99.99,,,-99.99,,2013-05-31 02:42:00,